• Join FlightAware (Why Join?)
  • Login
  • US Flag 
09:59PM EDT


 

Airport Tracker/Info


-or-


 

Live Flight TrackerFlight Track Log ✈ N868DB ✈ 28-Apr-2014 ✈ KBGR - KFTW

Flight Track Log - Related Links

Times and Time Zones

All times are in EDT time to prevent confusion due to time zone crossing. See the N868DB flight status page for this flight to view local times or setup timezone preferences in your user account.

Time Position Orientation Groundspeed Altitude Reporting Facility
EDT Latitude Longitude Course Direction KTS MPH feet Rate Location/Type
11:45AM 44.8153 -68.9883 247° West 280 322 6,100  Level Boston Center
11:46AM 44.7781 -69.0900 243° Southwest 291 335 10,100 3,180 Climbing Boston Center
11:47AM 44.7269 -69.2139 240° Southwest 338 389 12,700 2,820 Climbing Boston Center
11:48AM 44.7019 -69.3600 257° West 383 441 16,000 2,820 Climbing Boston Center
11:49AM 44.5558 -69.5326 245° Southwest  Level FlightAware Approximate
11:49AM 44.6822 -69.5142 260° West 389 448 18,500  Level Boston Center
11:50AM 44.6500 -69.6744 254° West 411 473 20,700 2,040 Climbing Boston Center
11:51AM 44.6178 -69.8400 255° West 429 494 22,800 2,040 Climbing Boston Center
11:52AM 44.5836 -70.0094 254° West 445 512 25,000 2,040 Climbing Boston Center
11:53AM 44.5511 -70.1792 255° West 446 513 27,100 2,040 Climbing Boston Center
11:54AM 44.5161 -70.3478 254° West 448 516 29,200 1,920 Climbing Boston Center
11:55AM 44.4817 -70.5169 254° West 449 517 31,100 1,800 Climbing Boston Center
11:56AM 44.4486 -70.6842 255° West 448 516 32,900 1,380 Climbing Boston Center
11:57AM 44.4058 -70.8833 253° West 444 511 34,000 480 Climbing Boston Center
11:58AM 44.3711 -71.0539 254° West 451 519 34,000  Level Boston Center
11:59AM 44.3394 -71.2064 254° West 452 520 34,000  Level Boston Center
12:00PM 44.3058 -71.3722 254° West 449 517 34,000 180 Level Boston Center
12:01PM 44.2628 -71.5697 253° West 445 512 34,400 480 Climbing Boston Center
12:02PM 44.2292 -71.7300 254° West 434 499 35,000 240 Climbing Boston Center
12:03PM 44.1950 -71.8875 253° West 429 494 35,000  Level Boston Center
12:04PM 44.1592 -72.0442 252° West 428 493 35,000  Level Boston Center
12:05PM 44.1247 -72.2033 253° West 428 493 35,000  Level Boston Center
12:06PM 44.0897 -72.3642 253° West 429 494 35,100 420 Climbing Boston Center
12:07PM 44.0547 -72.5219 253° West 429 494 35,900 780 Climbing Boston Center
12:08PM 44.0208 -72.6761 253° West 422 486 36,700 780 Climbing Boston Center
12:09PM 43.9853 -72.8297 252° West 419 482 37,500 720 Climbing Boston Center
12:10PM 43.9514 -72.9839 253° West 419 482 38,200 780 Climbing Boston Center
12:11PM 43.9092 -73.1661 252° West 417 480 39,100 660 Climbing Boston Center
12:12PM 43.8744 -73.3178 252° West 417 480 39,600 480 Climbing Boston Center
12:13PM 43.8394 -73.4697 252° West 416 479 40,100 180 Climbing Boston Center
12:14PM 43.8031 -73.6208 252° West 416 479 40,000 -60 Descending Boston Center
12:15PM 43.7692 -73.7661 252° West 416 479 40,000  Level Boston Center
12:16PM 43.7339 -73.9181 252° West 416 479 40,000  Level Boston Center
12:17PM 43.6981 -74.0667 252° West 414 476 40,000  Level Boston Center
12:18PM 43.6625 -74.2172 252° West 411 473 40,000  Level Boston Center
12:19PM 43.6194 -74.3933 251° West 409 471 40,000  Level Boston Center
12:20PM 43.5836 -74.5392 251° West 404 465 40,000  Level Boston Center
12:21PM 43.5486 -74.6822 251° West 400 460 40,000  Level Boston Center
12:22PM 43.5147 -74.8219 252° West 392 451 40,000  Level Boston Center
12:23PM 43.4800 -74.9619 251° West 390 449 40,000  Level Boston Center
12:24PM 43.4428 -75.1006 250° West 389 448 40,000  Level Boston Center
12:25PM 43.4017 -75.2450 249° West 391 450 40,000  Level Boston Center
12:26PM 43.3589 -75.3947 249° West 390 449 40,000  Level Boston Center
12:28PM 43.3192 -75.5300 248° West 388 447 40,000  Level Boston Center
12:29PM 43.2797 -75.6656 248° West 387 445 40,000  Level Boston Center
12:30PM 43.2386 -75.8022 248° West 388 447 40,000  Level Boston Center
12:31PM 43.1975 -75.9408 248° West 391 450 40,000  Level Boston Center
12:32PM 43.1567 -76.0783 248° West 391 450 40,000  Level Boston Center
12:33PM 43.1150 -76.2169 248° West 392 451 40,000  Level Boston Center
12:34PM 43.0639 -76.3836 247° West 393 452 40,000  Level Boston Center
12:35PM 43.0217 -76.5242 248° West 399 459 40,000  Level Boston Center
12:36PM 42.9472 -76.7639 247° West 399 459 40,000  Level Cleveland Center
12:37PM 42.9039 -76.9053 247° West 402 463 40,000  Level Cleveland Center
12:38PM 42.8608 -77.0461 247° West 404 465 40,000 180 Level Cleveland Center
12:40PM 42.8156 -77.1889 247° West 410 472 40,400 360 Climbing Cleveland Center
12:41PM 42.7714 -77.3306 247° West 409 471 40,800 360 Climbing Cleveland Center
12:42PM 42.7178 -77.5006 247° West 410 472 41,200 240 Climbing Cleveland Center
12:43PM 42.6761 -77.6292 246° West 412 474 41,400 240 Climbing Cleveland Center
12:44PM 42.6317 -77.7719 247° West 412 474 41,700 300 Climbing Cleveland Center
12:45PM 42.5750 -77.9467 246° West 413 475 42,100 240 Climbing Cleveland Center
12:46PM 42.5283 -78.0900 246° West 414 476 42,300 180 Climbing Cleveland Center
12:47PM 42.4822 -78.2328 246° West 416 479 42,500 240 Climbing Cleveland Center
12:48PM 42.4361 -78.3769 247° West 417 480 42,800 240 Climbing Cleveland Center
12:49PM 42.3886 -78.5197 246° West 417 480 43,000 60 Climbing Cleveland Center
12:50PM 42.3419 -78.6600 246° West 413 475 43,000  Level Cleveland Center
12:51PM 42.2842 -78.8322 246° West 417 480 43,000  Level Cleveland Center
12:52PM 42.2369 -78.9758 246° West 418 481 43,000  Level Cleveland Center
12:53PM 42.1906 -79.1169 246° West 418 481 43,000  Level Cleveland Center
12:54PM 42.1525 -79.2611 250° West 417 480 43,000  Level Cleveland Center
12:55PM 42.1156 -79.4036 251° West 410 472 43,000  Level Cleveland Center
12:56PM 42.0694 -79.5769 250° West 411 473 43,000  Level Cleveland Center
12:57PM 42.0317 -79.7225 251° West 416 479 43,000  Level Cleveland Center
12:58PM 41.9933 -79.8639 250° West 409 471 43,000  Level Cleveland Center
12:59PM 41.9561 -80.0067 251° West 412 474 43,000  Level Cleveland Center
01:00PM 41.9175 -80.1528 250° West 413 475 43,000  Level Cleveland Center
01:01PM 41.8700 -80.3236 250° West 412 474 43,000  Level Cleveland Center
01:02PM 41.8328 -80.4669 251° West 412 474 43,000  Level Cleveland Center
01:03PM 41.7925 -80.6103 249° West 411 473 43,000  Level Cleveland Center
01:04PM 41.7528 -80.7558 250° West 411 473 43,000  Level Cleveland Center
01:06PM 41.6719 -81.0472 250° West 413 475 43,000  Level Indianapolis Center
01:07PM 41.6317 -81.1936 250° West 413 475 43,000  Level Indianapolis Center
01:08PM 41.5911 -81.3394 250° West 414 476 43,000  Level Indianapolis Center
01:09PM 41.5503 -81.4850 249° West 415 478 43,000  Level Indianapolis Center
01:11PM 41.5028 -81.6531 249° West 415 478 43,000  Level Cleveland Center
01:12PM 41.4622 -81.7975 250° West 416 479 43,000  Level Cleveland Center
01:13PM 41.4203 -81.9414 249° West 419 482 43,000  Level Cleveland Center
01:14PM 41.3756 -82.0956 249° West 419 482 43,000  Level Cleveland Center
01:15PM 41.3219 -82.2508 245° Southwest 418 481 43,000  Level Cleveland Center
01:16PM 41.2664 -82.3867 241° Southwest 417 480 43,000  Level Cleveland Center
01:17PM 41.2106 -82.5217 241° Southwest 415 478 43,000  Level Cleveland Center
01:18PM 41.1550 -82.6583 242° Southwest 417 480 43,000  Level Cleveland Center
01:19PM 41.0983 -82.7936 241° Southwest 417 480 43,000  Level Cleveland Center
01:20PM 41.0347 -82.9489 242° Southwest 412 474 43,000  Level Cleveland Center
01:21PM 40.9803 -83.0808 241° Southwest 408 470 43,000  Level Cleveland Center
01:22PM 40.9319 -83.1964 241° Southwest 404 465 43,000  Level Cleveland Center
01:23PM 40.8792 -83.3228 241° Southwest 400 460 43,000  Level Cleveland Center
01:24PM 40.8156 -83.4731 241° Southwest 396 456 43,000  Level Cleveland Center
01:25PM 40.7636 -83.5964 241° Southwest 391 450 43,000  Level Cleveland Center
01:26PM 40.7225 -83.6956 241° Southwest 390 449 43,000  Level Indianapolis Center
01:27PM 40.6697 -83.8181 240° Southwest 390 449 43,000  Level Indianapolis Center
01:28PM 40.6169 -83.9417 241° Southwest 390 449 43,000  Level Indianapolis Center
01:29PM 40.5653 -84.0628 241° Southwest 388 447 43,000  Level Indianapolis Center
01:30PM 40.5133 -84.1828 240° Southwest 382 440 43,000  Level Indianapolis Center
01:31PM 40.4619 -84.3028 241° Southwest 381 438 43,000  Level Indianapolis Center
01:32PM 40.3989 -84.4481 240° Southwest 382 440 43,000  Level Indianapolis Center
01:33PM 40.3464 -84.5692 240° Southwest 382 440 43,000  Level Indianapolis Center
01:34PM 40.2936 -84.6889 240° Southwest 382 440 43,000  Level Indianapolis Center
01:35PM 40.2406 -84.8106 240° Southwest 382 440 43,000  Level Indianapolis Center
01:36PM 40.1825 -84.9419 240° Southwest 386 444 43,000  Level Indianapolis Center
01:37PM 40.1283 -85.0639 240° Southwest 387 445 43,000  Level Indianapolis Center
01:38PM 40.0728 -85.1875 240° Southwest 390 449 43,000  Level Indianapolis Center
01:39PM 40.0172 -85.3128 240° Southwest 395 455 43,000  Level Indianapolis Center
01:40PM 39.9606 -85.4378 239° Southwest 397 457 43,000  Level Indianapolis Center
01:41PM 39.9047 -85.5636 240° Southwest 399 459 43,000  Level Indianapolis Center
01:42PM 39.8353 -85.7153 239° Southwest 401 461 43,000  Level Indianapolis Center
01:43PM 39.7772 -85.8439 240° Southwest 408 470 43,000  Level Indianapolis Center
01:44PM 39.7181 -85.9717 239° Southwest 409 471 43,000  Level Indianapolis Center
01:45PM 39.6572 -86.1014 239° Southwest 409 471 43,000  Level Indianapolis Center
01:46PM 39.5967 -86.2342 239° Southwest 414 476 43,000  Level Indianapolis Center
01:47PM 39.5369 -86.3656 240° Southwest 415 478 43,000  Level Indianapolis Center
01:48PM 39.4775 -86.4942 239° Southwest 415 478 43,000  Level Indianapolis Center
01:49PM 39.4178 -86.6214 239° Southwest 415 478 43,000  Level Indianapolis Center
01:50PM 39.3583 -86.7489 239° Southwest 415 478 43,000  Level Indianapolis Center
01:51PM 39.2978 -86.8781 239° Southwest 415 478 43,000  Level Indianapolis Center
01:52PM 39.2372 -87.0069 239° Southwest 418 481 43,000  Level Indianapolis Center
01:53PM 39.1647 -87.1597 239° Southwest 420 483 43,000  Level Indianapolis Center
01:54PM 39.1128 -87.2708 239° Southwest 419 482 43,000  Level Indianapolis Center
01:55PM 39.0514 -87.3981 238° Southwest 419 482 43,000  Level Indianapolis Center
01:57PM 38.9781 -87.5500 238° Southwest 419 482 43,000  Level Indianapolis Center
01:58PM 38.9172 -87.6767 238° Southwest 419 482 43,000  Level Indianapolis Center
01:59PM 38.8553 -87.8050 238° Southwest 419 482 43,000  Level Indianapolis Center
02:00PM 38.7914 -87.9339 238° Southwest 423 487 43,000  Level Indianapolis Center
02:01PM 38.7278 -88.0642 238° Southwest 426 490 43,000  Level Indianapolis Center
02:01PM 38.6883 -88.1436 238° Southwest 428 493 43,000  Level Kansas City Center
02:02PM 38.6108 -88.3011 238° Southwest 430 495 43,000  Level Kansas City Center
02:03PM 38.5464 -88.4322 238° Southwest 431 496 43,000  Level Kansas City Center
02:04PM 38.4808 -88.5633 237° Southwest 435 501 43,000  Level Kansas City Center
02:05PM 38.4100 -88.7056 238° Southwest 435 501 43,000  Level Kansas City Center
02:06PM 38.3442 -88.8369 237° Southwest 437 503 43,000  Level Kansas City Center
02:07PM 38.2842 -88.9578 238° Southwest 432 497 43,000  Level Kansas City Center
02:09PM 38.2178 -89.0872 237° Southwest 433 498 43,000  Level Kansas City Center
02:10PM 38.1528 -89.2161 237° Southwest 433 498 43,000  Level Kansas City Center
02:11PM 38.0889 -89.3431 237° Southwest 431 496 43,000  Level Kansas City Center
02:12PM 38.0111 -89.4942 237° Southwest 429 494 43,000  Level Kansas City Center
02:13PM 37.9469 -89.6203 237° Southwest 428 493 43,000  Level Kansas City Center
02:14PM 37.8803 -89.7492 237° Southwest 428 493 43,000  Level Kansas City Center
02:15PM 37.8175 -89.8711 237° Southwest 427 491 43,000  Level Kansas City Center
02:16PM 37.7528 -89.9936 236° Southwest 425 489 43,000  Level Kansas City Center
02:17PM 37.6892 -90.1186 237° Southwest 422 486 43,000  Level Kansas City Center
02:18PM 37.6247 -90.2422 237° Southwest 422 486 43,000  Level Kansas City Center
02:19PM 37.5611 -90.3633 236° Southwest 420 483 43,000  Level Kansas City Center
02:20PM 37.4836 -90.5106 236° Southwest 418 481 43,000  Level Kansas City Center
02:21PM 37.4186 -90.6328 236° Southwest 418 481 43,000  Level Kansas City Center
02:22PM 37.3489 -90.7636 236° Southwest 420 483 43,000  Level Kansas City Center
02:23PM 37.2856 -90.8833 236° Southwest 416 479 43,000  Level Kansas City Center
02:24PM 37.2186 -91.0086 236° Southwest 420 483 43,000  Level Kansas City Center
02:25PM 37.1519 -91.1317 236° Southwest 420 483 43,000  Level Kansas City Center
02:26PM 37.0850 -91.2564 236° Southwest 425 489 43,000  Level Kansas City Center
02:27PM 37.0200 -91.3789 236° Southwest 425 489 43,000  Level Kansas City Center
02:28PM 36.9522 -91.5019 235° Southwest 425 489 43,000  Level Kansas City Center
02:29PM 36.8531 -91.6722 234° Southwest 431 496 43,000  Level Memphis Center
02:30PM 36.7811 -91.7939 234° Southwest 430 495 43,000  Level Memphis Center
02:32PM 36.7103 -91.9136 234° Southwest 430 495 43,000  Level Memphis Center
02:33PM 36.6403 -92.0336 234° Southwest 430 495 43,000  Level Memphis Center
02:34PM 36.5553 -92.1750 233° Southwest 425 489 43,000  Level Memphis Center
02:35PM 36.4853 -92.2931 234° Southwest 424 488 43,000  Level Memphis Center
02:36PM 36.4147 -92.4108 233° Southwest 424 488 43,000  Level Memphis Center
02:37PM 36.3442 -92.5244 232° Southwest 423 487 43,000  Level Memphis Center
02:38PM 36.2758 -92.6417 234° Southwest 422 486 43,000  Level Memphis Center
02:39PM 36.2072 -92.7550 233° Southwest 421 484 43,000  Level Memphis Center
02:40PM 36.1383 -92.8683 233° Southwest 419 482 43,000  Level Memphis Center
02:41PM 36.0703 -92.9817 233° Southwest 418 481 43,000  Level Memphis Center
02:42PM 35.9878 -93.1167 233° Southwest 415 478 43,000  Level Memphis Center
02:43PM 35.9203 -93.2258 233° Southwest 411 473 43,000  Level Memphis Center
02:44PM 35.8525 -93.3364 233° Southwest 408 470 43,000  Level Memphis Center
02:45PM 35.7847 -93.4475 233° Southwest 408 470 43,000  Level Memphis Center
02:46PM 35.7167 -93.5586 233° Southwest 408 470 43,000  Level Memphis Center
02:47PM 35.6478 -93.6697 233° Southwest 409 471 43,000  Level Memphis Center
02:48PM 35.5653 -93.8025 233° Southwest 409 471 43,000  Level Memphis Center
02:49PM 35.4958 -93.9131 232° Southwest 409 471 43,000  Level Memphis Center
02:50PM 35.4272 -94.0236 233° Southwest 410 472 43,000  Level Memphis Center
02:51PM 35.3528 -94.1431 233° Southwest 411 473 43,000  Level Memphis Center
02:52PM 35.2817 -94.2550 232° Southwest 411 473 43,000  Level Memphis Center
02:53PM 35.2153 -94.3592 232° Southwest 415 478 43,000  Level Memphis Center
02:54PM 35.1444 -94.4725 233° Southwest 416 479 43,000  Level Memphis Center
02:55PM 35.0578 -94.6089 232° Southwest 421 484 43,000  Level Memphis Center
02:56PM 34.9878 -94.7078 229° Southwest 422 486 43,000  Level Memphis Center
02:57PM 34.8975 -94.8022 221° Southwest 423 487 43,000  Level Memphis Center
02:58PM 34.7986 -94.9064 221° Southwest 428 493 43,000  Level Memphis Center
02:59PM 34.7000 -95.0139 222° Southwest 428 493 43,000  Level Memphis Center
03:00PM 34.6108 -95.1108 222° Southwest 428 493 43,000  Level Memphis Center
03:01PM 34.5247 -95.2042 222° Southwest 422 486 43,000  Level Memphis Center
03:02PM 34.4414 -95.3161 228° Southwest 422 486 43,000 -480 Level Memphis Center
03:04PM 34.3297 -95.4617 227° Southwest 423 487 41,900 -960 Descending Fort Worth Center
03:05PM 34.2508 -95.5664 228° Southwest 423 487 40,800 -1,020 Descending Fort Worth Center
03:06PM 34.1839 -95.6522 227° Southwest 394 453 39,800 -1,680 Descending Fort Worth Center
03:07PM 34.0981 -95.7644 227° Southwest 382 440 37,400 -2,220 Descending Fort Worth Center
03:08PM 34.0331 -95.8511 228° Southwest 372 428 35,200 -2,220 Descending Fort Worth Center
03:09PM 33.9661 -95.9367 227° Southwest 354 407 32,800 -2,520 Descending Fort Worth Center
03:10PM 33.9025 -96.0189 227° Southwest 340 391 30,000 -2,760 Descending Fort Worth Center
03:11PM 33.8389 -96.1008 227° Southwest 337 388 27,100 -3,060 Descending Fort Worth Center
03:12PM 33.7642 -96.1972 227° Southwest 330 380 23,700 -3,000 Descending Fort Worth Center
03:13PM 33.6997 -96.2767 226° Southwest 321 369 20,900 -2,880 Descending Fort Worth Center
03:14PM 33.6336 -96.3631 227° Southwest 326 375 17,800 -2,820 Descending Fort Worth Center
03:15PM 33.5706 -96.4411 226° Southwest 326 375 15,100 -2,760 Descending Fort Worth Center
03:16PM 33.5108 -96.5192 227° Southwest 321 369 12,200 -2,820 Descending Fort Worth Center
03:17PM 33.4461 -96.5986 226° Southwest 312 359 9,300 -1,560 Descending Fort Worth Center
03:18PM 33.3883 -96.6653 224° Southwest 291 335 9,000 -780 Descending Fort Worth Center
03:19PM 33.3514 -96.7539 243° Southwest 278 320 7,700 -1,260 Descending Fort Worth Center
03:20PM 33.3189 -96.8317 243° Southwest 266 306 6,400 -1,320 Descending Fort Worth Center
03:21PM 33.2861 -96.9175 245° Southwest 270 311 5,000 -1,140 Descending Fort Worth Center
03:22PM 33.2517 -97.0075 245° Southwest 274 315 4,100 -540 Descending Fort Worth Center
03:23PM 33.2219 -97.0844 245° Southwest 258 297 4,000 -60 Descending Fort Worth Center
03:24PM 33.1917 -97.1639 246° West 261 300 4,000  Level Fort Worth Center
03:25PM 33.1558 -97.2453 242° Southwest 261 300 4,100  Climbing Fort Worth Center
03:26PM 33.0831 -97.2556 187° South 261 300 4,000 -60 Descending Fort Worth Center
03:28PM 33.0047 -97.2639 185° South 261 300 4,000 -480 Level Fort Worth Center
03:29PM 32.9317 -97.2789 190° South 264 304 3,000 -540 Descending Fort Worth Center
03:30PM 32.8628 -97.3006 195° South 240 276 2,900 -420 Descending Fort Worth Center
03:31PM 32.8092 -97.3208 198° South 206 237 2,200 -660 Descending Fort Worth Center
03:32PM 32.7817 -97.3519 224° Southwest 154 177 1,600 -720 Descending Fort Worth Center
03:33PM 32.8131 -97.3611 346° North 119 137 700 -900 Descending Fort Worth Center
03:35PM 32.8167 -97.3500 North  Level FlightAware Approximate